createdAt,value
2023-01-25T00:00:00.791Z,-0.43
2023-01-25T00:01:04.677Z,-0.43
2023-01-25T00:02:01.194Z,-0.43
2023-01-25T00:03:00.635Z,-0.43
2023-01-25T00:04:00.750Z,-0.39
2023-01-25T00:05:00.623Z,-0.39
2023-01-25T00:06:00.906Z,-0.39
2023-01-25T00:07:00.632Z,-0.39
2023-01-25T00:08:00.610Z,-0.39
2023-01-25T00:09:00.635Z,-0.33
2023-01-25T00:10:00.669Z,-0.33
2023-01-25T00:11:00.606Z,-0.33
2023-01-25T00:12:00.633Z,-0.33
2023-01-25T00:13:00.602Z,-0.33
2023-01-25T00:14:00.599Z,-0.24
2023-01-25T00:15:00.609Z,-0.24
2023-01-25T00:16:01.093Z,-0.24
2023-01-25T00:17:00.613Z,-0.24
2023-01-25T00:18:00.629Z,-0.24
2023-01-25T00:19:00.619Z,-0.23
2023-01-25T00:20:00.605Z,-0.23
2023-01-25T00:21:10.550Z,-0.23
2023-01-25T00:22:00.625Z,-0.23
2023-01-25T00:23:00.618Z,-0.23
2023-01-25T00:24:01.629Z,-0.13
2023-01-25T00:25:00.620Z,-0.13
2023-01-25T00:26:00.613Z,-0.13
2023-01-25T00:27:01.223Z,-0.13
2023-01-25T00:28:00.617Z,-0.13
2023-01-25T00:29:00.714Z,-0.04
2023-01-25T00:30:00.611Z,-0.04
2023-01-25T00:31:01.002Z,-0.04
2023-01-25T00:32:00.750Z,-0.04
2023-01-25T00:33:10.528Z,-0.04
2023-01-25T00:34:10.539Z,-0.02
2023-01-25T00:35:00.632Z,-0.02
2023-01-25T00:36:00.617Z,-0.02
2023-01-25T00:37:01.706Z,-0.02
2023-01-25T00:38:02.041Z,-0.02
2023-01-25T00:39:00.605Z,0.02
2023-01-25T00:40:00.612Z,0.02
2023-01-25T00:41:00.630Z,0.02
2023-01-25T00:42:00.614Z,0.02
2023-01-25T00:43:00.668Z,0.02
2023-01-25T00:44:00.631Z,0.05
2023-01-25T00:45:00.672Z,0.05
2023-01-25T00:46:00.964Z,0.05
2023-01-25T00:47:00.603Z,0.05
2023-01-25T00:48:00.611Z,0.05
2023-01-25T00:49:00.614Z,0.05
2023-01-25T00:50:00.612Z,0.05
2023-01-25T00:51:00.976Z,0.05
2023-01-25T00:52:00.614Z,0.05
2023-01-25T00:53:00.596Z,0.05
2023-01-25T00:54:00.729Z,0.13
2023-01-25T00:55:00.676Z,0.13
2023-01-25T00:56:00.624Z,0.13
2023-01-25T00:57:00.717Z,0.13
2023-01-25T00:58:00.607Z,0.13
2023-01-25T00:59:00.599Z,0.18
2023-01-25T01:00:00.610Z,0.18
2023-01-25T01:01:00.660Z,0.18
2023-01-25T01:02:00.923Z,0.18
2023-01-25T01:03:00.610Z,0.18
2023-01-25T01:04:00.625Z,0.28
2023-01-25T01:05:00.721Z,0.28
2023-01-25T01:06:00.590Z,0.28
2023-01-25T01:07:00.637Z,0.28
2023-01-25T01:08:00.751Z,0.28
2023-01-25T01:09:00.852Z,0.34
2023-01-25T01:10:00.643Z,0.34
2023-01-25T01:11:01.013Z,0.34
2023-01-25T01:12:00.621Z,0.34
2023-01-25T01:13:00.627Z,0.34
2023-01-25T01:14:00.696Z,0.38
2023-01-25T01:15:00.674Z,0.38
2023-01-25T01:16:02.181Z,0.38
2023-01-25T01:17:00.666Z,0.38
2023-01-25T01:18:00.676Z,0.38
2023-01-25T01:19:00.970Z,0.45
2023-01-25T01:20:00.631Z,0.45
2023-01-25T01:21:00.609Z,0.45
2023-01-25T01:22:00.604Z,0.45
2023-01-25T01:23:00.622Z,0.45
2023-01-25T01:24:00.663Z,0.50
2023-01-25T01:25:00.754Z,0.50
2023-01-25T01:26:02.716Z,0.50
2023-01-25T01:27:00.617Z,0.50
2023-01-25T01:28:00.598Z,0.50
2023-01-25T01:29:00.801Z,0.55
2023-01-25T01:30:00.619Z,0.55
2023-01-25T01:31:01.455Z,0.55
2023-01-25T01:32:00.736Z,0.55
2023-01-25T01:33:00.600Z,0.55
2023-01-25T01:34:00.753Z,0.61
2023-01-25T01:35:00.604Z,0.61
2023-01-25T01:36:08.758Z,0.61
2023-01-25T01:37:00.624Z,0.61
2023-01-25T01:38:00.681Z,0.61
2023-01-25T01:39:00.670Z,0.65
2023-01-25T01:40:00.601Z,0.65
2023-01-25T01:41:00.602Z,0.65
2023-01-25T01:42:00.632Z,0.65
2023-01-25T01:43:02.094Z,0.65
2023-01-25T01:44:00.625Z,0.69
2023-01-25T01:45:00.612Z,0.69
2023-01-25T01:46:03.156Z,0.69
2023-01-25T01:47:00.940Z,0.69
2023-01-25T01:48:00.597Z,0.69
2023-01-25T01:49:03.539Z,0.71
2023-01-25T01:50:03.360Z,0.71
2023-01-25T01:51:02.381Z,0.71
2023-01-25T01:52:03.414Z,0.71
2023-01-25T01:53:00.708Z,0.71
2023-01-25T01:54:10.531Z,0.75
2023-01-25T01:55:04.131Z,0.75
2023-01-25T01:56:03.795Z,0.75
2023-01-25T01:57:06.221Z,0.75
2023-01-25T01:58:00.658Z,0.75
2023-01-25T01:59:02.223Z,0.80
2023-01-25T02:00:04.710Z,0.80
2023-01-25T02:01:00.701Z,0.80
2023-01-25T02:02:00.947Z,0.80
2023-01-25T02:03:00.624Z,0.80
2023-01-25T02:04:01.865Z,0.83
2023-01-25T02:05:02.592Z,0.83
2023-01-25T02:06:10.532Z,0.83
2023-01-25T02:07:05.578Z,0.83
2023-01-25T02:08:02.656Z,0.83
2023-01-25T02:09:00.736Z,0.83
2023-01-25T02:10:01.502Z,0.83
2023-01-25T02:11:00.711Z,0.83
2023-01-25T02:12:01.051Z,0.83
2023-01-25T02:13:00.603Z,0.83
2023-01-25T02:14:00.860Z,0.87
2023-01-25T02:15:00.648Z,0.87
2023-01-25T02:16:00.884Z,0.87
2023-01-25T02:17:01.970Z,0.87
2023-01-25T02:18:00.680Z,0.87
2023-01-25T02:19:00.774Z,0.92
2023-01-25T02:20:10.509Z,0.92
2023-01-25T02:21:00.719Z,0.92
2023-01-25T02:22:02.815Z,0.92
2023-01-25T02:23:00.592Z,0.92
2023-01-25T02:24:06.463Z,0.95
2023-01-25T02:25:04.991Z,0.95
2023-01-25T02:26:02.081Z,0.95
2023-01-25T02:27:00.860Z,0.95
2023-01-25T02:28:06.901Z,0.95
2023-01-25T02:29:03.018Z,0.97
2023-01-25T02:30:01.073Z,0.97
2023-01-25T02:31:00.949Z,0.97
2023-01-25T02:32:02.812Z,0.97
2023-01-25T02:33:00.658Z,0.97
2023-01-25T02:34:00.617Z,1.00
2023-01-25T02:35:00.630Z,1.00
2023-01-25T02:36:07.961Z,1.00
2023-01-25T02:37:00.888Z,1.00
2023-01-25T02:38:00.790Z,1.00
2023-01-25T02:39:02.854Z,1.03
2023-01-25T02:40:00.642Z,1.03
2023-01-25T02:41:10.524Z,1.03
2023-01-25T02:42:00.602Z,1.03
2023-01-25T02:43:00.591Z,1.03
2023-01-25T02:44:03.867Z,1.07
2023-01-25T02:45:00.961Z,1.07
2023-01-25T02:46:06.594Z,1.07
2023-01-25T02:47:00.634Z,1.07
2023-01-25T02:48:00.620Z,1.07
2023-01-25T02:49:01.190Z,1.12
2023-01-25T02:50:00.620Z,1.12
2023-01-25T02:51:00.690Z,1.12
2023-01-25T02:52:00.604Z,1.12
2023-01-25T02:53:00.609Z,1.12
2023-01-25T02:54:01.421Z,1.15
2023-01-25T02:55:00.636Z,1.15
2023-01-25T02:56:00.770Z,1.15
2023-01-25T02:57:00.650Z,1.15
2023-01-25T02:58:00.622Z,1.15
2023-01-25T02:59:00.640Z,1.18
2023-01-25T03:00:00.737Z,1.18
2023-01-25T03:01:00.616Z,1.18
2023-01-25T03:02:00.635Z,1.18
2023-01-25T03:03:00.701Z,1.18
2023-01-25T03:04:00.629Z,1.22
2023-01-25T03:05:00.653Z,1.22
2023-01-25T03:06:00.664Z,1.22
2023-01-25T03:07:00.596Z,1.22
2023-01-25T03:08:00.615Z,1.22
2023-01-25T03:09:01.200Z,1.26
2023-01-25T03:10:00.654Z,1.26
2023-01-25T03:11:02.223Z,1.26
2023-01-25T03:12:00.636Z,1.26
2023-01-25T03:13:00.653Z,1.26
2023-01-25T03:14:00.724Z,1.31
2023-01-25T03:15:00.659Z,1.31
2023-01-25T03:16:03.926Z,1.31
2023-01-25T03:17:00.608Z,1.31
2023-01-25T03:18:01.862Z,1.31
2023-01-25T03:19:00.757Z,1.33
2023-01-25T03:20:00.729Z,1.33
2023-01-25T03:21:10.521Z,1.33
2023-01-25T03:22:01.255Z,1.33
2023-01-25T03:23:00.620Z,1.33
2023-01-25T03:24:01.414Z,1.36
2023-01-25T03:25:00.622Z,1.36
2023-01-25T03:26:03.896Z,1.36
2023-01-25T03:27:00.627Z,1.36
2023-01-25T03:28:00.624Z,1.36
2023-01-25T03:29:00.611Z,1.38
2023-01-25T03:30:00.634Z,1.38
2023-01-25T03:31:00.838Z,1.38
2023-01-25T03:32:00.868Z,1.38
2023-01-25T03:33:00.615Z,1.38
2023-01-25T03:34:00.611Z,1.40
2023-01-25T03:35:00.648Z,1.40
2023-01-25T03:36:00.691Z,1.40
2023-01-25T03:37:00.691Z,1.40
2023-01-25T03:38:00.640Z,1.40
2023-01-25T03:39:00.618Z,1.41
2023-01-25T03:40:00.787Z,1.41
2023-01-25T03:41:00.730Z,1.41
2023-01-25T03:42:00.617Z,1.41
2023-01-25T03:43:00.606Z,1.41
2023-01-25T03:44:00.612Z,1.42
2023-01-25T03:45:00.608Z,1.42
2023-01-25T03:46:01.200Z,1.42
2023-01-25T03:47:00.724Z,1.42
2023-01-25T03:48:00.600Z,1.42
2023-01-25T03:49:00.606Z,1.44
2023-01-25T03:50:00.634Z,1.44
2023-01-25T03:51:00.635Z,1.44
2023-01-25T03:52:00.635Z,1.44
2023-01-25T03:53:00.615Z,1.44
2023-01-25T03:54:00.641Z,1.47
2023-01-25T03:55:00.615Z,1.47
2023-01-25T03:56:02.627Z,1.47
2023-01-25T03:57:00.619Z,1.47
2023-01-25T03:58:00.710Z,1.47
2023-01-25T03:59:00.659Z,1.50
2023-01-25T04:00:00.635Z,1.50
2023-01-25T04:01:01.663Z,1.50
2023-01-25T04:02:00.688Z,1.50
2023-01-25T04:03:00.629Z,1.50
2023-01-25T04:04:00.635Z,1.50
2023-01-25T04:05:00.627Z,1.50
2023-01-25T04:06:01.024Z,1.50
2023-01-25T04:07:00.636Z,1.50
2023-01-25T04:08:00.625Z,1.50
2023-01-25T04:09:00.599Z,1.50
2023-01-25T04:10:00.618Z,1.50
2023-01-25T04:11:01.886Z,1.50
2023-01-25T04:12:00.595Z,1.50
2023-01-25T04:13:00.679Z,1.50
2023-01-25T04:14:00.607Z,1.52
2023-01-25T04:15:00.600Z,1.52
2023-01-25T04:16:00.614Z,1.52
2023-01-25T04:17:00.635Z,1.52
2023-01-25T04:18:00.625Z,1.52
2023-01-25T04:19:00.797Z,1.50
2023-01-25T04:20:00.616Z,1.50
2023-01-25T04:21:00.601Z,1.50
2023-01-25T04:22:00.663Z,1.50
2023-01-25T04:23:00.613Z,1.50
2023-01-25T04:24:00.807Z,1.45
2023-01-25T04:25:00.615Z,1.45
2023-01-25T04:26:01.839Z,1.45
2023-01-25T04:27:00.605Z,1.45
2023-01-25T04:28:00.644Z,1.45
2023-01-25T04:29:00.610Z,1.47
2023-01-25T04:30:00.627Z,1.47
2023-01-25T04:31:01.077Z,1.47
2023-01-25T04:32:00.861Z,1.47
2023-01-25T04:33:02.582Z,1.47
2023-01-25T04:34:00.614Z,1.48
2023-01-25T04:35:00.657Z,1.48
2023-01-25T04:36:00.870Z,1.48
2023-01-25T04:37:00.698Z,1.48
2023-01-25T04:38:00.616Z,1.48
2023-01-25T04:39:00.629Z,1.49
2023-01-25T04:40:00.660Z,1.49
2023-01-25T04:41:00.636Z,1.49
2023-01-25T04:42:00.619Z,1.49
2023-01-25T04:43:01.134Z,1.49
2023-01-25T04:44:00.637Z,1.48
2023-01-25T04:45:00.644Z,1.48
2023-01-25T04:46:01.157Z,1.48
2023-01-25T04:47:00.653Z,1.48
2023-01-25T04:48:03.108Z,1.48
2023-01-25T04:49:00.639Z,1.48
2023-01-25T04:50:00.631Z,1.48
2023-01-25T04:51:00.623Z,1.48
2023-01-25T04:52:00.625Z,1.48
2023-01-25T04:53:00.632Z,1.48
2023-01-25T04:54:00.623Z,1.44
2023-01-25T04:55:00.635Z,1.44
2023-01-25T04:56:00.690Z,1.44
2023-01-25T04:57:00.595Z,1.44
2023-01-25T04:58:00.942Z,1.44
2023-01-25T04:59:00.599Z,1.44
2023-01-25T05:00:00.622Z,1.44
2023-01-25T05:01:01.364Z,1.44
2023-01-25T05:02:00.649Z,1.44
2023-01-25T05:03:01.430Z,1.44
2023-01-25T05:04:00.605Z,1.45
2023-01-25T05:05:00.676Z,1.45
2023-01-25T05:06:00.639Z,1.45
2023-01-25T05:07:00.673Z,1.45
2023-01-25T05:08:00.605Z,1.45
2023-01-25T05:09:00.671Z,1.46
2023-01-25T05:10:00.622Z,1.46
2023-01-25T05:11:00.621Z,1.46
2023-01-25T05:12:00.611Z,1.46
2023-01-25T05:13:00.601Z,1.46
2023-01-25T05:14:00.631Z,1.47
2023-01-25T05:15:00.855Z,1.47
2023-01-25T05:16:00.628Z,1.47
2023-01-25T05:17:00.747Z,1.47
2023-01-25T05:18:01.212Z,1.47
2023-01-25T05:19:00.631Z,1.49
2023-01-25T05:20:00.760Z,1.49
2023-01-25T05:21:00.639Z,1.49
2023-01-25T05:22:01.435Z,1.49
2023-01-25T05:23:00.636Z,1.49
2023-01-25T05:24:00.703Z,1.51
2023-01-25T05:25:00.827Z,1.51
2023-01-25T05:26:00.624Z,1.51
2023-01-25T05:27:01.269Z,1.51
2023-01-25T05:28:03.523Z,1.51
2023-01-25T05:29:00.643Z,1.51
2023-01-25T05:30:00.670Z,1.51
2023-01-25T05:31:03.244Z,1.51
2023-01-25T05:32:03.057Z,1.51
2023-01-25T05:33:00.842Z,1.51
2023-01-25T05:34:00.718Z,1.49
2023-01-25T05:35:05.586Z,1.49
2023-01-25T05:36:00.605Z,1.49
2023-01-25T05:37:01.143Z,1.49
2023-01-25T05:38:00.602Z,1.49
2023-01-25T05:39:00.636Z,1.49
2023-01-25T05:40:00.643Z,1.49
2023-01-25T05:41:00.602Z,1.49
2023-01-25T05:42:00.639Z,1.49
2023-01-25T05:43:00.637Z,1.49
2023-01-25T05:44:00.618Z,1.49
2023-01-25T05:45:00.632Z,1.49
2023-01-25T05:46:00.667Z,1.49
2023-01-25T05:47:00.658Z,1.49
2023-01-25T05:48:00.732Z,1.49
2023-01-25T05:49:00.608Z,1.46
2023-01-25T05:50:00.619Z,1.46
2023-01-25T05:51:00.641Z,1.46
2023-01-25T05:52:00.610Z,1.46
2023-01-25T05:53:00.603Z,1.46
2023-01-25T05:54:00.926Z,1.45
2023-01-25T05:55:00.628Z,1.45
2023-01-25T05:56:04.779Z,1.45
2023-01-25T05:57:00.626Z,1.45
2023-01-25T05:58:00.613Z,1.45
2023-01-25T05:59:00.725Z,1.39
2023-01-25T06:00:00.820Z,1.39
2023-01-25T06:01:01.942Z,1.39
2023-01-25T06:02:00.625Z,1.39
2023-01-25T06:03:00.877Z,1.39
2023-01-25T06:04:00.637Z,1.38
2023-01-25T06:05:00.602Z,1.38
2023-01-25T06:06:01.199Z,1.38
2023-01-25T06:07:00.625Z,1.38
2023-01-25T06:08:00.631Z,1.38
2023-01-25T06:09:00.750Z,1.33
2023-01-25T06:10:00.944Z,1.33
2023-01-25T06:11:05.657Z,1.33
2023-01-25T06:12:00.611Z,1.33
2023-01-25T06:13:00.616Z,1.33
2023-01-25T06:14:00.614Z,1.36
2023-01-25T06:15:00.646Z,1.36
2023-01-25T06:16:00.706Z,1.36
2023-01-25T06:17:00.641Z,1.36
2023-01-25T06:18:00.599Z,1.36
2023-01-25T06:19:00.627Z,1.33
2023-01-25T06:20:00.620Z,1.33
2023-01-25T06:21:01.365Z,1.33
2023-01-25T06:22:00.603Z,1.33
2023-01-25T06:23:00.660Z,1.33
2023-01-25T06:24:00.686Z,1.35
2023-01-25T06:25:00.618Z,1.35
2023-01-25T06:26:01.895Z,1.35
2023-01-25T06:27:00.619Z,1.35
2023-01-25T06:28:00.731Z,1.35
2023-01-25T06:29:00.691Z,1.38
2023-01-25T06:30:00.639Z,1.38
2023-01-25T06:31:08.958Z,1.38
2023-01-25T06:32:00.621Z,1.38
2023-01-25T06:33:01.088Z,1.38
2023-01-25T06:34:01.136Z,1.38
2023-01-25T06:35:00.771Z,1.38
2023-01-25T06:36:05.333Z,1.38
2023-01-25T06:37:00.617Z,1.38
2023-01-25T06:38:00.609Z,1.38
2023-01-25T06:39:00.617Z,1.45
2023-01-25T06:40:00.630Z,1.45
2023-01-25T06:41:01.908Z,1.45
2023-01-25T06:42:00.635Z,1.45
2023-01-25T06:43:08.448Z,1.45
2023-01-25T06:44:00.594Z,1.48
2023-01-25T06:45:00.647Z,1.48
2023-01-25T06:46:01.364Z,1.48
2023-01-25T06:47:00.621Z,1.48
2023-01-25T06:48:00.774Z,1.48
2023-01-25T06:49:00.646Z,1.48
2023-01-25T06:50:00.615Z,1.48
2023-01-25T06:51:01.962Z,1.48
2023-01-25T06:52:00.816Z,1.48
2023-01-25T06:53:00.604Z,1.48
2023-01-25T06:54:01.845Z,1.48
2023-01-25T06:55:01.081Z,1.48
2023-01-25T06:56:03.058Z,1.48
2023-01-25T06:57:00.630Z,1.48
2023-01-25T06:59:00.614Z,1.50
2023-01-25T07:00:00.721Z,1.50
2023-01-25T07:01:02.481Z,1.50
2023-01-25T07:02:00.670Z,1.50
2023-01-25T07:03:00.667Z,1.50
2023-01-25T07:04:00.666Z,1.50
2023-01-25T07:05:00.600Z,1.50
2023-01-25T07:06:02.931Z,1.50
2023-01-25T07:07:00.637Z,1.50
2023-01-25T07:08:00.619Z,1.50
2023-01-25T07:09:01.958Z,1.53
2023-01-25T07:10:00.606Z,1.53
2023-01-25T07:11:01.598Z,1.53
2023-01-25T07:12:00.683Z,1.53
2023-01-25T07:13:00.621Z,1.53
2023-01-25T07:14:00.982Z,1.51
2023-01-25T07:15:00.632Z,1.51
2023-01-25T07:16:01.576Z,1.51
2023-01-25T07:17:02.874Z,1.51
2023-01-25T07:18:14.839Z,1.51
2023-01-25T07:19:00.721Z,1.50
2023-01-25T07:20:00.622Z,1.50
2023-01-25T07:21:03.460Z,1.50
2023-01-25T07:22:00.831Z,1.50
2023-01-25T07:23:02.247Z,1.50
2023-01-25T07:24:01.243Z,1.48
2023-01-25T07:25:00.599Z,1.48
2023-01-25T07:26:00.784Z,1.48
2023-01-25T07:27:00.619Z,1.48
2023-01-25T07:28:00.608Z,1.48
2023-01-25T07:29:00.628Z,1.45
2023-01-25T07:30:00.637Z,1.45
2023-01-25T07:31:04.397Z,1.45
2023-01-25T07:32:01.270Z,1.45
2023-01-25T07:33:00.614Z,1.45
2023-01-25T07:34:00.650Z,1.40
2023-01-25T07:35:00.620Z,1.40
2023-01-25T07:36:02.670Z,1.40
2023-01-25T07:37:00.616Z,1.40
2023-01-25T07:38:00.867Z,1.40
2023-01-25T07:39:00.659Z,1.44
2023-01-25T07:40:00.641Z,1.44
2023-01-25T07:41:01.098Z,1.44
2023-01-25T07:42:00.735Z,1.44
2023-01-25T07:43:00.723Z,1.44
2023-01-25T07:44:00.688Z,1.43
2023-01-25T07:45:00.638Z,1.43
2023-01-25T07:46:05.072Z,1.43
2023-01-25T07:47:00.617Z,1.43
2023-01-25T07:48:06.900Z,1.43
2023-01-25T07:49:00.599Z,1.42
2023-01-25T07:50:00.645Z,1.42
2023-01-25T07:51:01.371Z,1.42
2023-01-25T07:52:00.606Z,1.42
2023-01-25T07:53:00.600Z,1.42
2023-01-25T07:54:02.495Z,1.41
2023-01-25T07:55:00.800Z,1.41
2023-01-25T07:56:00.612Z,1.41
2023-01-25T07:57:00.602Z,1.41
2023-01-25T07:58:00.609Z,1.41
2023-01-25T07:59:00.761Z,1.41
2023-01-25T08:00:00.641Z,1.41
2023-01-25T08:01:09.168Z,1.41
2023-01-25T08:02:00.645Z,1.41
2023-01-25T08:03:00.609Z,1.41
2023-01-25T08:04:01.172Z,1.39
2023-01-25T08:05:00.666Z,1.39
2023-01-25T08:06:00.628Z,1.39
2023-01-25T08:07:00.631Z,1.39
2023-01-25T08:08:00.617Z,1.39
2023-01-25T08:09:02.458Z,1.40
2023-01-25T08:10:00.609Z,1.40
2023-01-25T08:11:05.834Z,1.40
2023-01-25T08:12:00.620Z,1.40
2023-01-25T08:13:00.611Z,1.40
2023-01-25T08:14:00.912Z,1.41
2023-01-25T08:15:00.683Z,1.41
2023-01-25T08:16:00.601Z,1.41
2023-01-25T08:17:00.610Z,1.41
2023-01-25T08:18:00.986Z,1.41
2023-01-25T08:19:01.275Z,1.38
2023-01-25T08:20:00.714Z,1.38
2023-01-25T08:21:00.605Z,1.38
2023-01-25T08:22:00.660Z,1.38
2023-01-25T08:23:00.608Z,1.38
2023-01-25T08:24:02.569Z,1.44
2023-01-25T08:25:00.885Z,1.44
2023-01-25T08:26:01.581Z,1.44
2023-01-25T08:27:00.683Z,1.44
2023-01-25T08:28:00.609Z,1.44
2023-01-25T08:29:00.818Z,1.48
2023-01-25T08:30:01.172Z,1.48
2023-01-25T08:31:09.413Z,1.48
2023-01-25T08:32:00.623Z,1.48
2023-01-25T08:33:00.617Z,1.48
2023-01-25T08:34:00.936Z,1.48
2023-01-25T08:35:00.624Z,1.48
2023-01-25T08:36:00.741Z,1.48
2023-01-25T08:37:00.658Z,1.48
2023-01-25T08:38:00.601Z,1.48
2023-01-25T08:39:02.352Z,1.51
2023-01-25T08:40:00.617Z,1.51
2023-01-25T08:41:05.289Z,1.51
2023-01-25T08:42:00.615Z,1.51
2023-01-25T08:43:00.619Z,1.51
2023-01-25T08:44:00.785Z,1.53
2023-01-25T08:45:00.606Z,1.53
2023-01-25T08:46:01.498Z,1.53
2023-01-25T08:47:00.628Z,1.53
2023-01-25T08:48:00.613Z,1.53
2023-01-25T08:49:01.166Z,1.55
2023-01-25T08:50:00.681Z,1.55
2023-01-25T08:51:00.924Z,1.55
2023-01-25T08:52:00.655Z,1.55
2023-01-25T08:53:00.620Z,1.55
2023-01-25T08:54:01.578Z,1.59
2023-01-25T08:55:00.609Z,1.59
2023-01-25T08:56:02.657Z,1.59
2023-01-25T08:57:00.671Z,1.59
2023-01-25T08:58:00.602Z,1.59
2023-01-25T08:59:00.624Z,1.60
2023-01-25T09:00:00.710Z,1.60
2023-01-25T09:01:02.064Z,1.60
2023-01-25T09:02:00.610Z,1.60
2023-01-25T09:03:00.612Z,1.60
2023-01-25T09:04:00.845Z,1.65
2023-01-25T09:05:00.737Z,1.65
2023-01-25T09:06:00.618Z,1.65
2023-01-25T09:07:00.621Z,1.65
2023-01-25T09:08:01.404Z,1.65
2023-01-25T09:09:00.619Z,1.67
2023-01-25T09:10:00.674Z,1.67
2023-01-25T09:11:01.546Z,1.67
2023-01-25T09:12:00.699Z,1.67
2023-01-25T09:13:00.650Z,1.67
2023-01-25T09:14:00.633Z,1.70
2023-01-25T09:15:01.428Z,1.70
2023-01-25T09:16:02.727Z,1.70
2023-01-25T09:17:00.653Z,1.70
2023-01-25T09:18:00.604Z,1.70
2023-01-25T09:19:01.860Z,1.72
2023-01-25T09:20:00.646Z,1.72
2023-01-25T09:21:06.503Z,1.72
2023-01-25T09:22:00.603Z,1.72
2023-01-25T09:23:00.621Z,1.72
2023-01-25T09:24:08.062Z,1.72
2023-01-25T09:25:00.685Z,1.72
2023-01-25T09:26:00.715Z,1.72
2023-01-25T09:27:00.633Z,1.72
2023-01-25T09:28:00.793Z,1.72
2023-01-25T09:29:00.655Z,1.75
2023-01-25T09:30:02.304Z,1.75
2023-01-25T09:31:19.750Z,1.75
2023-01-25T09:32:00.863Z,1.75
2023-01-25T09:33:00.756Z,1.75
2023-01-25T09:34:00.810Z,1.79
2023-01-25T09:35:00.682Z,1.79
2023-01-25T09:36:01.168Z,1.79
2023-01-25T09:37:00.619Z,1.79
2023-01-25T09:38:00.621Z,1.79
2023-01-25T09:39:00.661Z,1.77
2023-01-25T09:40:00.622Z,1.77
2023-01-25T09:41:03.878Z,1.77
2023-01-25T09:42:14.569Z,1.77
2023-01-25T09:43:10.522Z,1.77
2023-01-25T09:44:10.540Z,1.80
2023-01-25T09:45:01.618Z,1.80
2023-01-25T09:46:07.824Z,1.80
2023-01-25T09:47:04.921Z,1.80
2023-01-25T09:48:10.525Z,1.80
2023-01-25T09:49:07.660Z,1.83
2023-01-25T09:50:01.634Z,1.83
2023-01-25T09:51:01.637Z,1.83
2023-01-25T09:52:08.173Z,1.83
2023-01-25T09:53:09.904Z,1.83
2023-01-25T09:54:00.970Z,1.88
2023-01-25T09:55:01.366Z,1.88
2023-01-25T09:56:08.855Z,1.88
2023-01-25T09:57:00.869Z,1.88
2023-01-25T09:58:01.465Z,1.88
2023-01-25T09:59:06.346Z,1.89
2023-01-25T10:00:05.654Z,1.89
2023-01-25T10:01:14.469Z,1.89
2023-01-25T10:02:04.421Z,1.89
2023-01-25T10:03:04.562Z,1.89
2023-01-25T10:04:03.280Z,1.94
2023-01-25T10:05:05.300Z,1.94
2023-01-25T10:06:01.567Z,1.94
2023-01-25T10:07:09.666Z,1.94
2023-01-25T10:08:10.534Z,1.94
2023-01-25T10:09:10.531Z,1.96
2023-01-25T10:10:03.823Z,1.96
2023-01-25T10:11:10.515Z,1.96
2023-01-25T10:12:08.383Z,1.96
2023-01-25T10:13:00.959Z,1.96
2023-01-25T10:14:00.651Z,2.01
2023-01-25T10:15:00.782Z,2.01
2023-01-25T10:16:03.092Z,2.01
2023-01-25T10:17:04.947Z,2.01
2023-01-25T10:18:10.520Z,2.01
2023-01-25T10:19:10.521Z,2.02
2023-01-25T10:20:08.384Z,2.02
2023-01-25T10:21:02.369Z,2.02
2023-01-25T10:22:05.201Z,2.02
2023-01-25T10:23:07.983Z,2.02
2023-01-25T10:24:10.616Z,2.03
2023-01-25T10:25:03.954Z,2.03
2023-01-25T10:26:05.478Z,2.03
2023-01-25T10:27:10.550Z,2.03
2023-01-25T10:28:07.988Z,2.03
2023-01-25T10:29:06.515Z,2.02
2023-01-25T10:30:08.109Z,2.02
2023-01-25T10:31:05.558Z,2.02
2023-01-25T10:32:10.530Z,2.02
2023-01-25T10:33:06.325Z,2.02
2023-01-25T10:34:01.172Z,2.06
2023-01-25T10:35:11.695Z,2.06
2023-01-25T10:36:01.739Z,2.06
2023-01-25T10:37:03.117Z,2.06
2023-01-25T10:38:10.558Z,2.06
2023-01-25T10:39:00.609Z,2.12
2023-01-25T10:40:03.554Z,2.12
2023-01-25T10:41:05.846Z,2.12
2023-01-25T10:42:05.203Z,2.12
2023-01-25T10:43:04.848Z,2.12
2023-01-25T10:44:00.601Z,2.15
2023-01-25T10:45:00.676Z,2.15
2023-01-25T10:46:01.273Z,2.15
2023-01-25T10:47:04.316Z,2.15
2023-01-25T10:48:02.362Z,2.15
2023-01-25T10:49:01.583Z,2.16
2023-01-25T10:50:00.634Z,2.16
2023-01-25T10:51:01.180Z,2.16
2023-01-25T10:52:10.529Z,2.16
2023-01-25T10:53:01.162Z,2.16
2023-01-25T10:54:01.650Z,2.18
2023-01-25T10:55:06.666Z,2.18
2023-01-25T10:56:08.109Z,2.18
2023-01-25T10:57:00.643Z,2.18
2023-01-25T10:58:00.696Z,2.18
2023-01-25T10:59:08.070Z,2.22
2023-01-25T11:00:04.456Z,2.22
2023-01-25T11:01:00.914Z,2.22
2023-01-25T11:02:10.533Z,2.22
2023-01-25T11:03:00.688Z,2.22
2023-01-25T11:04:01.042Z,2.26
2023-01-25T11:05:10.969Z,2.26
2023-01-25T11:06:00.639Z,2.26
2023-01-25T11:07:02.349Z,2.26
2023-01-25T11:08:10.524Z,2.26
2023-01-25T11:09:10.524Z,2.30
2023-01-25T11:10:00.632Z,2.30
2023-01-25T11:11:10.523Z,2.30
2023-01-25T11:12:02.038Z,2.30
2023-01-25T11:13:10.515Z,2.30
2023-01-25T11:14:00.922Z,2.31
2023-01-25T11:15:10.539Z,2.31
2023-01-25T11:16:00.660Z,2.31
2023-01-25T11:17:02.221Z,2.31
2023-01-25T11:18:10.521Z,2.31
2023-01-25T11:19:01.029Z,2.42
2023-01-25T11:20:05.500Z,2.42
2023-01-25T11:21:10.533Z,2.42
2023-01-25T11:22:01.944Z,2.42
2023-01-25T11:23:00.627Z,2.42
2023-01-25T11:24:07.981Z,2.50
2023-01-25T11:25:10.508Z,2.50
2023-01-25T11:26:10.527Z,2.50
2023-01-25T11:27:10.532Z,2.50
2023-01-25T11:28:09.251Z,2.50
2023-01-25T11:29:10.519Z,2.54
2023-01-25T11:30:03.859Z,2.54
2023-01-25T11:31:00.821Z,2.54
2023-01-25T11:32:00.685Z,2.54
2023-01-25T11:33:00.675Z,2.54
2023-01-25T11:34:00.923Z,2.57
2023-01-25T11:35:00.725Z,2.57
2023-01-25T11:36:01.607Z,2.57
2023-01-25T11:37:10.530Z,2.57
2023-01-25T11:38:07.939Z,2.57
2023-01-25T11:39:00.605Z,2.63
2023-01-25T11:40:10.908Z,2.63
2023-01-25T11:41:05.408Z,2.63
2023-01-25T11:42:05.704Z,2.63
2023-01-25T11:43:05.888Z,2.63
2023-01-25T11:44:10.540Z,2.65
2023-01-25T11:45:08.279Z,2.65
2023-01-25T11:46:10.573Z,2.65
2023-01-25T11:47:09.581Z,2.65
2023-01-25T11:48:08.353Z,2.65
2023-01-25T11:49:10.517Z,2.66
2023-01-25T11:50:10.876Z,2.66
2023-01-25T11:51:05.316Z,2.66
2023-01-25T11:52:03.864Z,2.66
2023-01-25T11:53:03.875Z,2.66
2023-01-25T11:54:00.609Z,2.70
2023-01-25T11:55:00.622Z,2.70
2023-01-25T11:56:10.534Z,2.70
2023-01-25T11:57:00.653Z,2.70
2023-01-25T11:58:10.382Z,2.70
2023-01-25T11:59:08.233Z,2.73
2023-01-25T12:00:07.361Z,2.73
2023-01-25T12:01:10.529Z,2.73
2023-01-25T12:02:00.612Z,2.73
2023-01-25T12:03:10.551Z,2.73
2023-01-25T12:04:10.603Z,2.82
2023-01-25T12:05:21.193Z,2.82
2023-01-25T12:06:10.520Z,2.82
2023-01-25T12:07:00.609Z,2.82
2023-01-25T12:08:00.646Z,2.82
2023-01-25T12:09:01.644Z,2.88
2023-01-25T12:10:10.819Z,2.88
2023-01-25T12:11:03.853Z,2.88
2023-01-25T12:12:10.533Z,2.88
2023-01-25T12:13:01.623Z,2.88
2023-01-25T12:14:09.841Z,2.96
2023-01-25T12:15:10.526Z,2.96
2023-01-25T12:16:00.657Z,2.96
2023-01-25T12:17:05.070Z,2.96
2023-01-25T12:18:01.761Z,2.96
2023-01-25T12:19:10.545Z,2.97
2023-01-25T12:20:03.866Z,2.97
2023-01-25T12:21:03.399Z,2.97
2023-01-25T12:22:08.071Z,2.97
2023-01-25T12:23:00.608Z,2.97
2023-01-25T12:24:00.620Z,3.05
2023-01-25T12:25:01.622Z,3.05
2023-01-25T12:26:10.534Z,3.05
2023-01-25T12:27:10.519Z,3.05
2023-01-25T12:28:10.528Z,3.05
2023-01-25T12:29:00.608Z,3.12
2023-01-25T12:30:10.785Z,3.12
2023-01-25T12:31:04.712Z,3.12
2023-01-25T12:32:00.613Z,3.12
2023-01-25T12:33:14.299Z,3.12
2023-01-25T12:34:03.836Z,3.24
2023-01-25T12:35:10.513Z,3.24
2023-01-25T12:36:00.620Z,3.24
2023-01-25T12:37:03.757Z,3.24
2023-01-25T12:38:02.522Z,3.24
2023-01-25T12:39:02.672Z,3.22
2023-01-25T12:40:04.011Z,3.22
2023-01-25T12:41:04.197Z,3.22
2023-01-25T12:42:04.674Z,3.22
2023-01-25T12:43:00.681Z,3.22
2023-01-25T12:44:07.065Z,3.29
2023-01-25T12:45:03.976Z,3.29
2023-01-25T12:46:03.921Z,3.29
2023-01-25T12:47:01.711Z,3.29
2023-01-25T12:48:03.241Z,3.29
2023-01-25T12:49:05.239Z,3.35
2023-01-25T12:50:10.890Z,3.35
2023-01-25T12:51:00.640Z,3.35
2023-01-25T12:52:04.423Z,3.35
2023-01-25T12:53:01.625Z,3.35
2023-01-25T12:54:05.580Z,3.39
2023-01-25T12:55:02.537Z,3.39
2023-01-25T12:56:00.911Z,3.39
2023-01-25T12:57:10.517Z,3.39
2023-01-25T12:58:07.202Z,3.39
2023-01-25T12:59:00.602Z,3.42
2023-01-25T13:00:06.640Z,3.42
2023-01-25T13:01:03.942Z,3.42
2023-01-25T13:02:08.903Z,3.42
2023-01-25T13:03:06.604Z,3.42
2023-01-25T13:04:03.862Z,3.43
2023-01-25T13:05:10.515Z,3.43
2023-01-25T13:06:00.608Z,3.43
2023-01-25T13:07:08.889Z,3.43
2023-01-25T13:08:11.411Z,3.43
2023-01-25T13:09:09.135Z,3.43
2023-01-25T13:10:04.021Z,3.43
2023-01-25T13:11:06.697Z,3.43
2023-01-25T13:12:02.547Z,3.43
2023-01-25T13:13:01.737Z,3.43
2023-01-25T13:14:10.539Z,3.43
2023-01-25T13:15:00.632Z,3.43
2023-01-25T13:16:10.585Z,3.43
2023-01-25T13:17:10.711Z,3.43
2023-01-25T13:18:00.675Z,3.43